Time;durP1;ratioP1;P1;durP2;ratioP2;P2;SDS_P1;SDS_P2;PMS_P1;PMS_P2;Temp;Humidity;BMP_temperature;BMP_pressure;BME280_temperature;BME280_humidity;BME280_pressure;Samples;Min_cycle;Max_cycle;Signal;HPM_P1;HPM_P2
2021/08/16 00:01:04;;;;;;;5.40;2.85;;;18.50;99.90;;;;;;5029250;28;19917;-58
2021/08/16 00:03:30;;;;;;;11.60;2.92;;;18.50;99.90;;;;;;5042512;28;20125;-59
2021/08/16 00:05:55;;;;;;;8.35;3.35;;;18.50;99.90;;;;;;5042323;28;20120;-58
2021/08/16 00:08:21;;;;;;;;;;;18.40;99.90;;;;;;5057061;28;20040;-59
2021/08/16 00:10:47;;;;;;;7.07;3.72;;;18.40;99.90;;;;;;5057889;28;19924;-57
2021/08/16 00:13:12;;;;;;;;;;;18.20;99.90;;;;;;5060930;28;20032;-59
2021/08/16 00:15:38;;;;;;;10.65;4.70;;;18.10;99.90;;;;;;5061500;28;19920;-59
2021/08/16 00:18:04;;;;;;;;;;;18.10;99.90;;;;;;5054091;28;20507;-59
2021/08/16 00:20:30;;;;;;;8.50;3.90;;;18.00;99.90;;;;;;5048821;28;19923;-58
2021/08/16 00:22:56;;;;;;;14.40;5.20;;;17.90;99.90;;;;;;5049083;28;20110;-58
2021/08/16 00:25:21;;;;;;;;;;;17.90;99.90;;;;;;5048788;28;20443;-58
2021/08/16 00:27:47;;;;;;;14.15;5.82;;;17.80;99.90;;;;;;5048666;28;19916;-58
2021/08/16 00:30:13;;;;;;;;;;;17.70;99.90;;;;;;5049056;28;20560;-59
2021/08/16 00:32:38;;;;;;;13.55;5.70;;;17.70;99.90;;;;;;5048378;28;19917;-58
2021/08/16 00:35:04;;;;;;;13.23;5.88;;;17.60;99.90;;;;;;5048260;28;20033;-58
2021/08/16 00:37:30;;;;;;;;;;;17.50;99.90;;;;;;5049085;28;20123;-58
2021/08/16 00:39:55;;;;;;;10.18;4.80;;;17.50;99.90;;;;;;5048393;28;20019;-59
2021/08/16 00:42:21;;;;;;;15.02;4.97;;;17.60;99.90;;;;;;5048499;28;20045;-58
2021/08/16 00:44:47;;;;;;;15.07;4.85;;;17.50;99.90;;;;;;5048501;28;20124;-59
2021/08/16 00:47:15;;;;;;;11.82;5.05;;;17.50;99.90;;;;;;5047389;28;20748;-58
2021/08/16 00:49:40;;;;;;;18.17;6.55;;;17.40;99.90;;;;;;5048012;28;20047;-58
2021/08/16 00:52:06;;;;;;;;;;;17.30;99.90;;;;;;5039890;28;20033;-58
2021/08/16 00:54:32;;;;;;;10.52;4.70;;;17.30;99.90;;;;;;5028501;28;19916;-59
2021/08/16 00:57:01;;;;;;;15.48;5.63;;;17.30;99.90;;;;;;5038200;28;20049;-58
2021/08/16 00:59:28;;;;;;;16.00;5.82;;;17.30;99.90;;;;;;5048340;28;20037;-57
2021/08/16 01:01:54;;;;;;;11.90;5.95;;;17.20;99.90;;;;;;5048298;28;20094;-58
2021/08/16 01:04:19;;;;;;;;;;;17.20;99.90;;;;;;5048777;28;20044;-58
2021/08/16 01:06:46;;;;;;;15.73;7.32;;;17.30;99.90;;;;;;5048207;28;19920;-56
2021/08/16 01:09:12;;;;;;;21.60;10.85;;;17.30;99.90;;;;;;5048465;28;20552;-58
2021/08/16 01:11:37;;;;;;;;;;;17.10;99.90;;;;;;5048032;28;20195;-57
2021/08/16 01:14:04;;;;;;;20.88;10.07;;;17.20;99.90;;;;;;5047030;28;19971;-58
2021/08/16 01:16:29;;;;;;;16.50;8.88;;;17.20;99.90;;;;;;5046281;28;20040;-58
2021/08/16 01:18:55;;;;;;;;;;;17.20;99.90;;;;;;5046693;28;20386;-66
2021/08/16 01:21:20;;;;;;;19.85;10.15;;;17.10;99.90;;;;;;5048249;28;20066;-57
2021/08/16 01:23:47;;;;;;;;;;;17.10;99.90;;;;;;5048306;28;20049;-55
2021/08/16 01:26:13;;;;;;;18.97;9.00;;;17.00;99.90;;;;;;5047326;28;20572;-57
2021/08/16 01:28:38;;;;;;;;;;;17.10;99.90;;;;;;5047647;28;20275;-57
2021/08/16 01:31:06;;;;;;;16.77;10.60;;;17.00;99.90;;;;;;5046641;28;19958;-56
2021/08/16 01:33:34;;;;;;;29.73;13.00;;;17.00;99.90;;;;;;5043210;28;20390;-57
2021/08/16 01:36:00;;;;;;;19.83;11.10;;;16.90;99.90;;;;;;5028116;28;20517;-57
2021/08/16 01:38:27;;;;;;;;;;;17.00;99.90;;;;;;5042264;28;20505;-57
2021/08/16 01:40:53;;;;;;;21.40;11.60;;;17.00;99.90;;;;;;5047647;28;20003;-57
2021/08/16 01:43:18;;;;;;;;;;;16.90;99.90;;;;;;5048136;28;20175;-57
2021/08/16 01:45:44;;;;;;;21.13;11.98;;;17.00;99.90;;;;;;5046436;28;19932;-57
2021/08/16 01:48:12;;;;;;;;;;;16.90;99.90;;;;;;5047638;28;20187;-54
2021/08/16 01:50:37;;;;;;;26.05;12.60;;;16.90;99.90;;;;;;5045525;28;20304;-54
2021/08/16 01:53:03;;;;;;;;;;;16.90;99.90;;;;;;5047852;28;20041;-58
2021/08/16 01:55:29;;;;;;;24.55;13.02;;;16.90;99.90;;;;;;5047091;28;19923;-58
2021/08/16 01:57:55;;;;;;;25.15;13.35;;;16.90;99.90;;;;;;5046691;28;20131;-54
2021/08/16 02:00:20;;;;;;;20.88;12.27;;;16.80;99.90;;;;;;5047224;28;20459;-57
2021/08/16 02:02:46;;;;;;;;;;;16.80;99.90;;;;;;5046099;28;20131;-58
2021/08/16 02:05:11;;;;;;;32.75;17.02;;;16.80;99.90;;;;;;5029022;28;19927;-58
2021/08/16 02:07:37;;;;;;;;;;;16.70;99.90;;;;;;5031540;28;20034;-58
2021/08/16 02:10:03;;;;;;;17.38;11.35;;;16.70;99.90;;;;;;5034137;28;19921;-57
2021/08/16 02:12:29;;;;;;;22.10;11.30;;;16.70;99.90;;;;;;5047495;28;20447;-56
2021/08/16 02:14:55;;;;;;;;;;;16.60;99.90;;;;;;5047279;28;20037;-57
2021/08/16 02:17:20;;;;;;;19.02;11.52;;;16.60;99.90;;;;;;5046332;28;20426;-57
2021/08/16 02:19:47;;;;;;;;;;;16.50;99.90;;;;;;5047832;28;20045;-57
2021/08/16 02:22:14;;;;;;;16.77;11.02;;;16.50;99.90;;;;;;5047380;28;20316;-57
2021/08/16 02:24:39;;;;;;;22.13;10.68;;;16.50;99.90;;;;;;5046887;28;20052;-56
2021/08/16 02:27:05;;;;;;;;;;;16.50;99.90;;;;;;5047051;28;20037;-56
2021/08/16 02:29:30;;;;;;;17.00;10.45;;;16.50;99.90;;;;;;5047036;28;20351;-57
2021/08/16 02:31:56;;;;;;;;;;;16.40;99.90;;;;;;5046439;28;20062;-57
2021/08/16 02:34:21;;;;;;;18.77;10.32;;;16.40;99.90;;;;;;5047201;28;20011;-57
2021/08/16 02:36:47;;;;;;;;;;;16.30;99.90;;;;;;5045507;28;20496;-57
2021/08/16 02:39:13;;;;;;;19.30;10.10;;;16.40;99.90;;;;;;5038454;28;20300;-57
2021/08/16 02:41:38;;;;;;;;;;;16.30;99.90;;;;;;5047186;28;20156;-58
2021/08/16 02:44:05;;;;;;;16.85;9.05;;;16.30;99.90;;;;;;5046344;28;20120;-56
2021/08/16 02:46:32;;;;;;;15.20;8.85;;;16.20;99.90;;;;;;5046318;28;20049;-58
2021/08/16 02:48:58;;;;;;;15.35;7.55;;;16.10;99.90;;;;;;5046889;28;20695;-57
2021/08/16 02:51:25;;;;;;;;;;;16.10;99.90;;;;;;5047111;28;20041;-57
2021/08/16 02:53:51;;;;;;;16.75;6.35;;;16.00;99.90;;;;;;5047580;28;20285;-58
2021/08/16 02:56:17;;;;;;;;;;;16.00;99.90;;;;;;5042722;28;20049;-57
2021/08/16 02:58:42;;;;;;;13.10;6.63;;;15.90;99.90;;;;;;5043250;28;19924;-57
2021/08/16 03:01:08;;;;;;;11.63;6.85;;;15.90;99.90;;;;;;5046888;28;20037;-57
2021/08/16 03:03:33;;;;;;;;;;;15.90;99.90;;;;;;5046176;28;20047;-55
2021/08/16 03:05:59;;;;;;;10.85;5.75;;;15.80;99.90;;;;;;5047069;28;19920;-57
2021/08/16 03:08:24;;;;;;;;;;;15.70;99.90;;;;;;5039654;28;20032;-55
2021/08/16 03:10:50;;;;;;;9.82;5.90;;;15.70;99.90;;;;;;5046683;28;19917;-57
2021/08/16 03:13:16;;;;;;;;;;;15.70;99.90;;;;;;5047769;28;20493;-57
2021/08/16 03:15:41;;;;;;;8.68;5.45;;;15.60;99.90;;;;;;5046618;28;19928;-58
2021/08/16 03:18:07;;;;;;;;;;;15.60;99.90;;;;;;5035331;28;20153;-57
2021/08/16 03:20:32;;;;;;;8.32;4.93;;;15.60;99.90;;;;;;5027027;28;19917;-55
2021/08/16 03:22:58;;;;;;;;;;;15.60;99.90;;;;;;5027848;28;20077;-58
2021/08/16 03:25:24;;;;;;;9.77;3.83;;;15.40;99.90;;;;;;5026705;28;19917;-57
2021/08/16 03:27:49;;;;;;;;;;;15.40;99.90;;;;;;5027654;28;20609;-58
2021/08/16 03:30:16;;;;;;;8.57;4.38;;;15.40;99.90;;;;;;5026195;28;19931;-57
2021/08/16 03:32:42;;;;;;;8.00;4.20;;;15.20;99.90;;;;;;5026398;28;20068;-56
2021/08/16 03:35:07;;;;;;;;;;;15.20;99.90;;;;;;5027822;28;20041;-57
2021/08/16 03:37:35;;;;;;;7.88;4.20;;;15.20;99.90;;;;;;5030899;28;19916;-57
2021/08/16 03:40:03;;;;;;;10.63;4.35;;;15.10;99.90;;;;;;5036763;28;20062;-56
2021/08/16 03:42:29;;;;;;;9.55;3.95;;;15.00;99.90;;;;;;5046350;28;20056;-56
2021/08/16 03:44:54;;;;;;;;;;;15.00;99.90;;;;;;5047291;28;20482;-57
2021/08/16 03:47:20;;;;;;;10.07;4.60;;;14.90;99.90;;;;;;5046070;28;19971;-57
2021/08/16 03:49:46;;;;;;;;;;;14.90;99.90;;;;;;5047469;28;20041;-57
2021/08/16 03:52:12;;;;;;;7.15;4.45;;;14.90;99.90;;;;;;5046923;28;19920;-54
2021/08/16 03:54:37;;;;;;;9.50;4.82;;;14.80;99.90;;;;;;5050655;28;20037;-54
2021/08/16 03:57:03;;;;;;;;;;;14.80;99.90;;;;;;5041576;28;20049;-57
2021/08/16 03:59:29;;;;;;;12.50;4.70;;;14.70;99.90;;;;;;5049855;28;20304;-56
2021/08/16 04:01:54;;;;;;;;;;;14.60;99.90;;;;;;5050296;28;20037;-60
2021/08/16 04:04:21;;;;;;;8.23;4.78;;;14.60;99.90;;;;;;5050124;28;19962;-58
2021/08/16 04:06:46;;;;;;;11.23;5.30;;;14.50;99.90;;;;;;5048963;28;20040;-58
2021/08/16 04:09:12;;;;;;;;;;;14.50;99.90;;;;;;5050658;28;20032;-58
2021/08/16 04:11:38;;;;;;;9.68;5.40;;;14.40;99.90;;;;;;5050418;28;19975;-60
2021/08/16 04:14:04;;;;;;;8.35;6.10;;;14.40;99.90;;;;;;5047356;28;20037;-58
2021/08/16 04:16:30;;;;;;;;;;;14.40;99.90;;;;;;5037191;28;20052;-59
2021/08/16 04:18:55;;;;;;;8.82;6.53;;;14.40;99.90;;;;;;5047887;28;19917;-60
2021/08/16 04:21:21;;;;;;;;;;;14.40;99.90;;;;;;5049537;28;20138;-59
2021/08/16 04:23:47;;;;;;;10.32;7.15;;;14.30;99.90;;;;;;5049256;28;20380;-55
2021/08/16 04:26:12;;;;;;;;;;;14.30;99.90;;;;;;5049103;28;20083;-62
2021/08/16 04:28:38;;;;;;;10.43;6.90;;;14.20;99.90;;;;;;5048684;28;19921;-62
2021/08/16 04:31:03;;;;;;;;;;;14.30;99.90;;;;;;5047729;28;20408;-57
2021/08/16 04:33:29;;;;;;;14.68;8.63;;;14.30;99.90;;;;;;5049274;28;19917;-61
2021/08/16 04:35:55;;;;;;;;;;;14.20;99.90;;;;;;5048926;28;20064;-59
2021/08/16 04:38:22;;;;;;;;;;;14.10;99.90;;;;;;5049698;28;19920;-61
2021/08/16 04:40:51;;;;;;;;;;;14.10;99.90;;;;;;5048562;28;20011;-61
2021/08/16 04:43:17;;;;;;;;;;;14.10;99.90;;;;;;5047595;28;19924;-62
2021/08/16 04:45:43;;;;;;;;;;;14.20;99.90;;;;;;5048599;28;19921;-62
2021/08/16 04:48:08;;;;;;;;;;;14.20;99.90;;;;;;5049149;28;19921;-62
2021/08/16 04:50:34;;;;;;;;;;;14.30;99.90;;;;;;5043186;28;19916;-63
2021/08/16 04:52:59;;;;;;;;;;;14.40;99.90;;;;;;5041481;28;19923;-62
2021/08/16 04:55:25;;;;;;;;;;;14.30;99.90;;;;;;5036550;28;19990;-62
2021/08/16 04:57:51;;;;;;;;;;;14.50;99.90;;;;;;5038802;28;19928;-63
2021/08/16 05:00:18;;;;;;;;;;;14.60;99.90;;;;;;5048914;28;20009;-61
2021/08/16 05:02:44;;;;;;;;;;;14.70;99.90;;;;;;5048027;28;19917;-61
2021/08/16 05:05:14;;;;;;;;;;;14.70;99.90;;;;;;5048576;28;19985;-61
2021/08/16 05:07:46;;;;;;;;;;;15.00;99.90;;;;;;5048736;28;20008;-62
2021/08/16 05:10:12;;;;;;;;;;;15.20;99.90;;;;;;5048255;28;19986;-62
2021/08/16 05:12:38;;;;;;;;;;;15.30;99.90;;;;;;5048598;28;19920;-61
2021/08/16 05:15:03;;;;;;;;;;;15.30;99.90;;;;;;5036011;28;19921;-63
2021/08/16 05:17:30;;;;;;;;;;;15.40;99.90;;;;;;5035289;28;20440;-63
2021/08/16 05:19:56;;;;;;;;;;;15.30;99.90;;;;;;5029437;28;20436;-62
2021/08/16 05:22:21;;;;;;;;;;;15.30;99.90;;;;;;5028026;28;19921;-62
2021/08/16 05:24:47;;;;;;;;;;;15.10;99.90;;;;;;5028402;28;20638;-62
2021/08/16 05:27:13;;;;;;;;;;;15.20;99.90;;;;;;5032645;28;20459;-63
2021/08/16 05:29:38;;;;;;;;;;;15.30;99.90;;;;;;5038344;28;19928;-62
2021/08/16 05:32:04;;;;;;;;;;;15.40;99.90;;;;;;5036165;28;20405;-63
2021/08/16 05:34:29;;;;;;;;;;;15.30;99.90;;;;;;5036440;28;20428;-63
2021/08/16 05:36:55;;;;;;;;;;;15.50;99.90;;;;;;5037788;28;20394;-63
2021/08/16 05:39:20;;;;;;;;;;;15.70;99.90;;;;;;5046343;28;19960;-63
2021/08/16 05:41:46;;;;;;;;;;;15.50;99.90;;;;;;5047536;28;19970;-62
2021/08/16 05:44:12;;;;;;;;;;;15.50;99.90;;;;;;5048659;28;19917;-63
2021/08/16 05:46:37;;;;;;;;;;;15.30;99.90;;;;;;5041567;28;19982;-62
2021/08/16 05:49:03;;;;;;;;;;;15.30;99.90;;;;;;5035627;28;19927;-63
2021/08/16 05:51:28;;;;;;;;;;;15.30;99.90;;;;;;5036388;28;19921;-62
2021/08/16 05:53:54;;;;;;;;;;;15.20;99.90;;;;;;5029579;28;19924;-62
2021/08/16 05:56:19;;;;;;;;;;;15.20;99.90;;;;;;5033381;28;19916;-62
2021/08/16 05:58:45;;;;;;;;;;;15.20;99.90;;;;;;5048234;28;19976;-63
2021/08/16 06:01:10;;;;;;;;;;;15.40;99.90;;;;;;5047657;28;20435;-63
2021/08/16 06:03:36;;;;;;;;;;;15.40;99.90;;;;;;5048000;28;19920;-62
2021/08/16 06:06:01;;;;;;;;;;;15.40;99.90;;;;;;5045945;28;19921;-62
2021/08/16 06:08:27;;;;;;;;;;;15.30;99.90;;;;;;5045325;28;19917;-62
2021/08/16 06:10:52;;;;;;;;;;;15.30;99.90;;;;;;5047935;28;19920;-62
2021/08/16 06:13:18;;;;;;;;;;;15.30;99.90;;;;;;5050130;28;20343;-63
2021/08/16 06:15:43;;;;;;;;;;;15.20;99.90;;;;;;5046698;28;19920;-63
2021/08/16 06:18:09;;;;;;;;;;;15.00;99.90;;;;;;5048223;28;20443;-63
2021/08/16 06:20:34;;;;;;;;;;;14.90;99.90;;;;;;5048709;28;19924;-62
2021/08/16 06:23:00;;;;;;;;;;;14.90;99.90;;;;;;5047349;28;19943;-62
2021/08/16 06:25:25;;;;;;;;;;;14.70;99.90;;;;;;5048036;28;21280;-62
2021/08/16 06:27:51;;;;;;;;;;;14.60;99.90;;;;;;5047455;28;19920;-62
2021/08/16 06:30:16;;;;;;;;;;;14.60;99.90;;;;;;5047214;28;20376;-62
2021/08/16 06:32:42;;;;;;;;;;;14.70;99.90;;;;;;5047770;28;19916;-62
2021/08/16 06:35:08;;;;;;;;;;;14.50;99.90;;;;;;5047649;28;19921;-63
2021/08/16 06:37:34;;;;;;;;;;;14.50;99.90;;;;;;5047412;28;19959;-62
2021/08/16 06:39:59;;;;;;;;;;;14.60;99.90;;;;;;5047753;28;20341;-62
2021/08/16 06:42:25;;;;;;;;;;;14.60;99.90;;;;;;5048019;28;20391;-62
2021/08/16 06:44:51;;;;;;;;;;;14.60;99.90;;;;;;5047517;28;19974;-62
2021/08/16 06:47:16;;;;;;;;;;;14.60;99.90;;;;;;5046939;28;20020;-62
2021/08/16 06:49:42;;;;;;;;;;;14.60;99.90;;;;;;5048185;28;19967;-63
2021/08/16 06:52:08;;;;;;;;;;;14.70;99.90;;;;;;5047416;28;20019;-62
2021/08/16 06:54:33;;;;;;;;;;;14.70;99.90;;;;;;5047170;28;20396;-62
2021/08/16 06:57:00;;;;;;;;;;;14.80;99.90;;;;;;5037902;28;19925;-62
2021/08/16 06:59:26;;;;;;;;;;;14.70;99.90;;;;;;5047758;28;19921;-61
2021/08/16 07:01:51;;;;;;;;;;;14.60;99.90;;;;;;5047219;28;19916;-62
2021/08/16 07:04:18;;;;;;;;;;;14.60;99.90;;;;;;5047788;28;19917;-60
2021/08/16 07:06:44;;;;;;;;;;;14.60;99.90;;;;;;5047334;28;19921;-64
2021/08/16 07:09:10;;;;;;;;;;;14.60;99.90;;;;;;5047692;28;20422;-63
2021/08/16 07:11:35;;;;;;;;;;;14.70;99.90;;;;;;5047763;28;20015;-62
2021/08/16 07:14:01;;;;;;;;;;;14.60;99.90;;;;;;5047422;28;19921;-63
2021/08/16 07:16:26;;;;;;;;;;;14.60;99.90;;;;;;5046473;28;20005;-62
2021/08/16 07:18:52;;;;;;;;;;;14.60;99.90;;;;;;5046989;28;20381;-61
2021/08/16 07:21:17;;;;;;;;;;;14.70;99.90;;;;;;5046625;28;19927;-62
2021/08/16 07:23:43;;;;;;;;;;;14.70;99.90;;;;;;5046771;28;20281;-63
2021/08/16 07:26:08;;;;;;;;;;;14.60;99.90;;;;;;5046662;28;19925;-63
2021/08/16 07:28:35;;;;;;;;;;;14.60;99.90;;;;;;5049207;28;19927;-64
2021/08/16 07:31:01;;;;;;;;;;;14.60;99.90;;;;;;5050562;28;20008;-63
2021/08/16 07:33:26;;;;;;;;;;;14.50;99.90;;;;;;5050824;28;20003;-63
2021/08/16 07:35:52;;;;;;;;;;;14.50;99.90;;;;;;5050946;28;19966;-60
2021/08/16 07:38:17;;;;;;;;;;;14.50;99.90;;;;;;5050619;28;19921;-63
2021/08/16 07:40:43;;;;;;;;;;;14.50;99.90;;;;;;5033678;28;19921;-63
2021/08/16 07:43:09;;;;;;;;;;;14.40;99.90;;;;;;5048296;28;20348;-63
2021/08/16 07:45:35;;;;;;;;;;;14.40;99.90;;;;;;5050753;28;19959;-63
2021/08/16 07:48:01;;;;;;;;;;;14.40;99.90;;;;;;5051230;28;19917;-62
2021/08/16 07:50:26;;;;;;;;;;;14.40;99.90;;;;;;5051267;28;19916;-63
2021/08/16 07:52:53;;;;;;;;;;;14.30;99.90;;;;;;5051731;28;19979;-63
2021/08/16 07:55:19;;;;;;;;;;;14.30;99.90;;;;;;5050508;28;20265;-64
2021/08/16 07:57:44;;;;;;;;;;;14.30;99.90;;;;;;5050345;28;19924;-64
2021/08/16 08:00:10;;;;;;;;;;;14.30;99.90;;;;;;5050830;28;19921;-64
2021/08/16 08:02:49;;;;;;;;;;;14.40;99.90;;;;;;5049728;28;19966;-64
2021/08/16 08:05:15;;;;;;;;;;;14.40;99.90;;;;;;5050854;28;19920;-63
2021/08/16 08:07:41;;;;;;;;;;;14.30;99.90;;;;;;5044214;28;19931;-64
2021/08/16 08:10:08;;;;;;;;;;;14.40;99.90;;;;;;5045506;28;20295;-63
2021/08/16 08:12:33;;;;;;;;;;;14.40;99.90;;;;;;5040629;28;19931;-63
2021/08/16 08:14:59;;;;;;;;;;;14.40;99.90;;;;;;5046284;28;19917;-64
2021/08/16 08:17:25;;;;;;;;;;;14.60;99.90;;;;;;5034590;28;19959;-64
2021/08/16 08:19:50;;;;;;;;;;;14.80;99.90;;;;;;5031218;28;20614;-64
2021/08/16 08:22:17;;;;;;;;;;;15.00;99.90;;;;;;5030850;28;19917;-64
2021/08/16 08:24:43;;;;;;;;;;;15.10;99.90;;;;;;5030590;28;19979;-65
2021/08/16 08:27:08;;;;;;;;;;;15.10;99.90;;;;;;5029782;28;19925;-63
2021/08/16 08:29:33;;;;;;;;;;;15.10;99.90;;;;;;5030345;28;19966;-62
2021/08/16 08:31:59;;;;;;;;;;;15.20;99.90;;;;;;5028623;28;20736;-62
2021/08/16 08:34:24;;;;;;;;;;;15.20;99.90;;;;;;5030089;28;19933;-62
2021/08/16 08:36:50;;;;;;;;;;;15.10;99.90;;;;;;5031079;28;20585;-62
2021/08/16 08:39:15;;;;;;;;;;;15.00;99.90;;;;;;5042262;28;20385;-62
2021/08/16 08:41:41;;;;;;;;;;;14.90;99.90;;;;;;5037656;28;19986;-61
2021/08/16 08:44:10;;;;;;;;;;;14.90;99.90;;;;;;5028500;28;20355;-61
2021/08/16 08:46:39;;;;;;;;;;;14.80;99.90;;;;;;5028760;28;19974;-61
2021/08/16 08:49:05;;;;;;;;;;;14.80;99.90;;;;;;5029265;28;19966;-63
2021/08/16 08:51:31;;;;;;;;;;;14.70;99.90;;;;;;5047554;28;19972;-63
2021/08/16 08:53:56;;;;;;;;;;;14.70;99.90;;;;;;5063573;28;20011;-63
2021/08/16 08:56:22;;;;;;;;;;;14.80;99.90;;;;;;5041023;28;19987;-63
2021/08/16 08:58:47;;;;;;;;;;;14.80;99.90;;;;;;5037501;28;19982;-63
2021/08/16 09:01:13;;;;;;;;;;;14.80;99.90;;;;;;5046858;28;19926;-63
2021/08/16 09:03:53;;;;;;;;;;;14.80;99.90;;;;;;5066339;28;20338;-63
2021/08/16 09:06:28;;;;;;;;;;;14.90;99.90;;;;;;5054463;28;19920;-63
2021/08/16 09:08:53;;;;;;;;;;;14.90;99.90;;;;;;5054611;28;19923;-63
2021/08/16 09:11:19;;;;;;;;;;;14.90;99.90;;;;;;5050272;28;19916;-63
2021/08/16 09:13:57;;;;;;;;;;;14.90;99.90;;;;;;5040372;28;20126;-62
2021/08/16 09:16:23;;;;;;;;;;;15.10;99.90;;;;;;5048595;28;19959;-63
2021/08/16 09:18:49;;;;;;;;;;;15.20;99.90;;;;;;5030985;28;20007;-63
2021/08/16 09:21:24;;;;;;;;;;;15.20;99.90;;;;;;5029233;28;19923;-64
2021/08/16 09:23:53;;;;;;;;;;;15.20;99.90;;;;;;5029067;28;19975;-64
2021/08/16 09:26:23;;;;;;;;;;;15.20;99.90;;;;;;5027250;28;20434;-62
2021/08/16 09:28:49;;;;;;;;;;;15.00;99.90;;;;;;5027334;28;20066;-63
2021/08/16 09:31:16;;;;;;;;;;;15.00;99.90;;;;;;5029671;28;19996;-62
2021/08/16 09:34:00;;;;;;;;;;;15.00;99.90;;;;;;5028672;28;19923;-63
2021/08/16 09:36:46;;;;;;;;;;;15.00;99.90;;;;;;5029023;28;19924;-62
2021/08/16 09:39:18;;;;;;;;;;;14.90;99.90;;;;;;5046091;28;20450;-63
2021/08/16 09:41:44;;;;;;;;;;;15.00;99.90;;;;;;5046831;28;19997;-64
2021/08/16 09:44:11;;;;;;;;;;;15.20;99.90;;;;;;5038818;28;19917;-64
2021/08/16 09:46:37;;;;;;;;;;;15.20;99.90;;;;;;5039085;28;19982;-64
2021/08/16 09:49:03;;;;;;;;;;;15.20;99.90;;;;;;5043189;28;19916;-64
2021/08/16 09:51:29;;;;;;;;;;;15.20;99.90;;;;;;5047499;28;19924;-64
2021/08/16 09:53:54;;;;;;;;;;;15.20;99.90;;;;;;5048659;28;19917;-64
2021/08/16 09:56:21;;;;;;;;;;;15.20;99.90;;;;;;5043141;28;19917;-63
2021/08/16 09:58:47;;;;;;;;;;;15.20;99.90;;;;;;5044326;28;19970;-69
2021/08/16 10:01:12;;;;;;;;;;;15.30;99.90;;;;;;5047614;28;20002;-67
2021/08/16 10:03:39;;;;;;;;;;;15.50;99.90;;;;;;5048097;28;19921;-62
2021/08/16 10:06:06;;;;;;;;;;;15.70;99.90;;;;;;5046765;28;19924;-64
2021/08/16 10:08:34;;;;;;;;;;;15.90;99.90;;;;;;5046132;28;19921;-65
2021/08/16 10:11:00;;;;;;;;;;;16.00;99.90;;;;;;5047857;28;20270;-63
2021/08/16 10:13:27;;;;;;;;;;;16.10;99.90;;;;;;5047897;28;20380;-62
2021/08/16 10:16:05;;;;;;;;;;;16.20;99.90;;;;;;5045069;28;19924;-63
2021/08/16 10:18:33;;;;;;;;;;;16.20;99.90;;;;;;5038260;28;19982;-64
2021/08/16 10:20:59;;;;;;;;;;;16.30;99.90;;;;;;5039046;28;19921;-64
2021/08/16 10:23:25;;;;;;;;;;;16.40;99.90;;;;;;5039042;28;20627;-64
2021/08/16 10:25:55;;;;;;;;;;;16.50;99.90;;;;;;5043580;28;20446;-63
2021/08/16 10:28:27;;;;;;;;;;;16.50;99.90;;;;;;5043059;28;19996;-64
2021/08/16 10:30:54;;;;;;;;;;;16.50;99.90;;;;;;5037720;28;19917;-66
2021/08/16 10:33:19;;;;;;;;;;;16.50;99.90;;;;;;5037749;28;19960;-65
2021/08/16 10:35:45;;;;;;;;;;;16.60;99.90;;;;;;5037192;28;20151;-64
2021/08/16 10:38:12;;;;;;;;;;;16.60;99.90;;;;;;5038112;28;19921;-63
2021/08/16 10:40:40;;;;;;;;;;;16.50;99.90;;;;;;5037351;28;19934;-64
2021/08/16 10:43:07;;;;;;;;;;;16.50;99.90;;;;;;5036939;28;19920;-64
2021/08/16 10:45:35;;;;;;;;;;;16.60;99.90;;;;;;5035754;28;19918;-64
2021/08/16 10:48:05;;;;;;;;;;;16.50;99.90;;;;;;5037121;28;20296;-63
2021/08/16 10:50:30;;;;;;;;;;;16.40;99.90;;;;;;5038627;28;19960;-64
2021/08/16 10:53:14;;;;;;;;;;;16.50;99.90;;;;;;5039825;28;20414;-63
2021/08/16 10:55:41;;;;;;;;;;;16.50;99.90;;;;;;5037927;28;19920;-64
2021/08/16 10:58:10;;;;;;;;;;;16.60;99.90;;;;;;5037175;28;20020;-63
2021/08/16 11:00:39;;;;;;;;;;;16.50;99.80;;;;;;5037204;28;19929;-63
2021/08/16 11:03:07;;;;;;;;;;;16.60;99.90;;;;;;5037623;28;19924;-64
2021/08/16 11:05:37;;;;;;;;;;;16.80;99.60;;;;;;5036487;28;20011;-64
2021/08/16 11:08:03;;;;;;;;;;;17.10;99.50;;;;;;5037679;28;19927;-64
2021/08/16 11:10:42;;;;;;;;;;;17.20;99.10;;;;;;5037478;28;20007;-64
2021/08/16 11:13:09;;;;;;;;;;;17.30;99.50;;;;;;5036857;28;20377;-64
2021/08/16 11:15:35;;;;;;;;;;;17.40;98.70;;;;;;5038446;28;19917;-64
2021/08/16 11:18:11;;;;;;;;;;;17.60;98.90;;;;;;5038719;28;20411;-63
2021/08/16 11:20:36;;;;;;;;;;;17.40;98.40;;;;;;5038361;28;19925;-62
2021/08/16 11:23:02;;;;;;;;;;;17.40;98.60;;;;;;5037360;28;19921;-63
2021/08/16 11:25:28;;;;;;;;;;;17.30;98.80;;;;;;5037363;28;19921;-62
2021/08/16 11:27:58;;;;;;;;;;;17.10;98.80;;;;;;5037045;28;19931;-63
2021/08/16 11:30:24;;;;;;;;;;;17.10;98.90;;;;;;5037006;28;19924;-62
2021/08/16 11:32:52;;;;;;;;;;;17.10;98.80;;;;;;5037095;28;19920;-63
2021/08/16 11:35:18;;;;;;;;;;;17.20;98.80;;;;;;5037328;28;19916;-63
2021/08/16 11:37:48;;;;;;;;;;;17.40;98.90;;;;;;5036457;28;19917;-63
2021/08/16 11:40:14;;;;;;;;;;;17.60;98.70;;;;;;5037309;28;20019;-64
2021/08/16 11:42:40;;;;;;;;;;;17.70;98.40;;;;;;5036760;28;20532;-63
2021/08/16 11:45:06;;;;;;;;;;;17.50;98.10;;;;;;5036474;28;20398;-63
2021/08/16 11:47:33;;;;;;;;;;;17.30;98.20;;;;;;5036213;28;19932;-63
2021/08/16 11:50:00;;;;;;;;;;;17.20;98.70;;;;;;5037391;28;19975;-63
2021/08/16 11:52:25;;;;;;;;;;;17.00;98.70;;;;;;5036770;28;19917;-63
2021/08/16 11:54:51;;;;;;;;;;;17.10;98.70;;;;;;5037220;28;19916;-62
2021/08/16 11:57:19;;;;;;;;;;;17.40;99.00;;;;;;5036455;28;19920;-62
2021/08/16 11:59:49;;;;;;;;;;;17.60;98.50;;;;;;5036276;28;19917;-63
2021/08/16 12:02:14;;;;;;;;;;;17.80;97.80;;;;;;5045772;28;19923;-63
2021/08/16 12:04:40;;;;;;;;;;;17.90;98.40;;;;;;5046833;28;19988;-64
2021/08/16 12:07:06;;;;;;;;;;;17.90;97.00;;;;;;5045964;28;20024;-65
2021/08/16 12:09:32;;;;;;;;;;;17.90;97.60;;;;;;5046476;28;19921;-64
2021/08/16 12:11:59;;;;;;;;;;;17.70;97.40;;;;;;5046874;28;19928;-63
2021/08/16 12:14:29;;;;;;;;;;;17.70;98.00;;;;;;5048162;28;19917;-63
2021/08/16 12:16:54;;;;;;;;;;;17.70;97.80;;;;;;5049389;28;20396;-62
2021/08/16 12:19:20;;;;;;;;;;;17.70;97.90;;;;;;5050127;28;19921;-63
2021/08/16 12:21:45;;;;;;;;;;;17.60;97.80;;;;;;5050383;28;19970;-64
2021/08/16 12:24:11;;;;;;;;;;;17.60;97.70;;;;;;5049924;28;19964;-64
2021/08/16 12:26:38;;;;;;;;;;;17.50;98.40;;;;;;5049961;28;19941;-65
2021/08/16 12:29:20;;;;;;;;;;;17.40;99.20;;;;;;5041653;28;19925;-64
2021/08/16 12:31:45;;;;;;;;;;;17.40;99.90;;;;;;5046237;28;20388;-65
2021/08/16 12:34:13;;;;;;;;;;;17.10;99.90;;;;;;5040746;28;19982;-65
2021/08/16 12:36:40;;;;;;;;;;;16.90;99.90;;;;;;5029535;28;20018;-65
2021/08/16 12:39:09;;;;;;;;;;;16.70;99.90;;;;;;5048629;28;20003;-66
2021/08/16 12:41:35;;;;;;;;;;;16.60;99.90;;;;;;5050978;28;19917;-64
2021/08/16 12:44:01;;;;;;;;;;;16.40;99.90;;;;;;5049871;28;19921;-64
2021/08/16 12:46:34;;;;;;;;;;;16.40;99.90;;;;;;5049545;28;19928;-64
2021/08/16 12:49:00;;;;;;;;;;;16.10;99.90;;;;;;5050266;28;19923;-64
2021/08/16 12:51:26;;;;;;;;;;;16.10;99.90;;;;;;5049207;28;19921;-64
2021/08/16 12:53:55;;;;;;;;;;;16.20;99.90;;;;;;5050291;28;19969;-65
2021/08/16 12:56:20;;;;;;;;;;;16.00;99.90;;;;;;5049515;28;19921;-64
2021/08/16 12:58:47;;;;;;;;;;;15.70;99.90;;;;;;5048666;28;19925;-65
2021/08/16 13:01:19;;;;;;;;;;;15.40;99.90;;;;;;5049038;28;19924;-64
2021/08/16 13:03:45;;;;;;;;;;;15.20;99.90;;;;;;5049712;28;20303;-64
2021/08/16 13:06:11;;;;;;;;;;;15.20;99.90;;;;;;5049335;28;19985;-65
2021/08/16 13:08:36;;;;;;;;;;;14.90;99.90;;;;;;5040401;28;19924;-65
2021/08/16 13:11:02;;;;;;;;;;;14.90;99.90;;;;;;5039727;28;19924;-64
2021/08/16 13:13:27;;;;;;;;;;;14.90;99.90;;;;;;5039418;28;20043;-64
2021/08/16 13:15:53;;;;;;;;;;;14.80;99.90;;;;;;5039211;28;19917;-65
2021/08/16 13:18:18;;;;;;;;;;;14.70;99.90;;;;;;5040600;28;19921;-65
2021/08/16 13:20:44;;;;;;;;;;;14.50;99.90;;;;;;5038499;28;20011;-64
2021/08/16 13:23:10;;;;;;;;;;;14.60;99.90;;;;;;5041360;28;20486;-64
2021/08/16 13:25:36;;;;;;;;;;;14.30;99.90;;;;;;5037786;28;19967;-64
2021/08/16 13:28:02;;;;;;;;;;;14.30;99.90;;;;;;5038718;28;20573;-64
2021/08/16 13:30:27;;;;;;;;;;;14.20;99.90;;;;;;5039791;28;19942;-64
2021/08/16 13:32:53;;;;;;;;;;;14.20;99.90;;;;;;5046906;28;20560;-65
2021/08/16 13:35:18;;;;;;;;;;;14.10;99.90;;;;;;5036248;28;20015;-64
2021/08/16 13:37:44;;;;;;;;;;;14.10;99.90;;;;;;5039539;28;19995;-64
2021/08/16 13:40:10;;;;;;;;;;;14.10;99.90;;;;;;5038648;28;20133;-64
2021/08/16 13:42:37;;;;;;;;;;;14.00;99.90;;;;;;5040569;28;20403;-64
2021/08/16 13:45:02;;;;;;;;;;;14.10;99.90;;;;;;5037062;28;19929;-63
2021/08/16 13:47:28;;;;;;;;;;;13.80;99.90;;;;;;5036567;28;19925;-64
2021/08/16 13:49:53;;;;;;;;;;;13.70;99.90;;;;;;5038681;28;19970;-64